Time;durP1;ratioP1;P1;durP2;ratioP2;P2;SDS_P1;SDS_P2;PMS_P1;PMS_P2;Temp;Humidity;BMP_temperature;BMP_pressure;BME280_temperature;BME280_humidity;BME280_pressure;Samples;Min_cycle;Max_cycle;Signal;HPM_P1;HPM_P2
2023/10/02 00:01:51;;;;;;;27.67;14.60;;;16.90;99.90;;;;;;5078216;28;20038;-71
2023/10/02 00:04:18;;;;;;;29.15;14.35;;;16.90;99.90;;;;;;5068453;28;20049;-72
2023/10/02 00:06:47;;;;;;;28.85;14.48;;;16.80;99.90;;;;;;5066516;28;20047;-71
2023/10/02 00:09:19;;;;;;;27.80;14.85;;;16.80;99.90;;;;;;5078420;28;20048;-72
2023/10/02 00:11:46;;;;;;;29.05;14.95;;;16.70;99.90;;;;;;5080614;28;20110;-71
2023/10/02 00:14:20;;;;;;;33.30;14.52;;;16.60;99.90;;;;;;5067566;28;20511;-72
2023/10/02 00:16:59;;;;;;;28.70;14.38;;;16.60;99.90;;;;;;5072952;28;20515;-72
2023/10/02 00:19:39;;;;;;;28.65;14.93;;;16.70;99.90;;;;;;5078514;28;20466;-71
2023/10/02 00:22:08;;;;;;;28.52;14.45;;;16.70;99.90;;;;;;5070436;28;20390;-70
2023/10/02 00:24:39;;;;;;;29.13;14.75;;;16.70;99.90;;;;;;5066910;28;20041;-71
2023/10/02 00:27:09;;;;;;;28.50;14.90;;;16.70;99.90;;;;;;5074224;28;20079;-72
2023/10/02 00:29:51;;;;;;;28.08;15.02;;;16.70;99.90;;;;;;5057393;28;20048;-68
2023/10/02 00:32:19;;;;;;;28.10;14.02;;;16.70;99.90;;;;;;5061320;28;20041;-71
2023/10/02 00:34:46;;;;;;;29.52;14.55;;;16.80;99.90;;;;;;5078349;28;20090;-71
2023/10/02 00:37:15;;;;;;;29.00;14.27;;;16.80;99.90;;;;;;5077954;28;20051;-72
2023/10/02 00:39:41;;;;;;;28.85;14.85;;;16.80;99.90;;;;;;5064725;28;20462;-72
2023/10/02 00:42:24;;;;;;;27.50;14.75;;;16.80;99.90;;;;;;5068955;28;20044;-72
2023/10/02 00:44:52;;;;;;;29.30;14.05;;;16.90;99.90;;;;;;5071843;28;20032;-72
2023/10/02 00:47:48;;;;;;;31.00;14.88;;;16.90;99.90;;;;;;5065827;28;20499;-72
2023/10/02 00:50:18;;;;;;;26.35;14.05;;;16.90;99.90;;;;;;5069635;28;20044;-73
2023/10/02 00:53:00;;;;;;;30.55;15.38;;;16.90;99.90;;;;;;5070099;28;20049;-72
2023/10/02 00:55:34;;;;;;;29.45;15.52;;;16.90;99.90;;;;;;5064039;28;20140;-72
2023/10/02 00:58:05;;;;;;;29.38;14.43;;;16.90;99.90;;;;;;5067335;28;20078;-72
2023/10/02 01:00:35;;;;;;;29.98;15.13;;;16.90;99.90;;;;;;5061562;28;20102;-72
2023/10/02 01:03:05;;;;;;;31.52;15.55;;;16.90;99.90;;;;;;5065141;28;20075;-71
2023/10/02 01:05:42;;;;;;;27.42;14.65;;;17.00;99.90;;;;;;5062869;28;20033;-72
2023/10/02 01:08:24;;;;;;;28.05;14.45;;;16.90;99.90;;;;;;5069952;28;20040;-73
2023/10/02 01:10:56;;;;;;;30.65;15.60;;;16.90;99.90;;;;;;5069973;28;20127;-72
2023/10/02 01:13:29;;;;;;;28.20;14.88;;;16.90;99.90;;;;;;5058899;28;20048;-72
2023/10/02 01:15:56;;;;;;;30.08;15.23;;;16.90;99.90;;;;;;5070593;28;20075;-72
2023/10/02 01:18:27;;;;;;;27.88;14.95;;;16.80;99.90;;;;;;5071303;28;20036;-72
2023/10/02 01:20:56;;;;;;;30.95;15.07;;;16.80;99.90;;;;;;5067503;28;20036;-72
2023/10/02 01:23:31;;;;;;;32.25;15.13;;;16.70;99.90;;;;;;5070121;28;20041;-72
2023/10/02 01:25:57;;;;;;;31.63;14.90;;;16.70;99.90;;;;;;5069509;28;20419;-70
2023/10/02 01:28:49;;;;;;;28.92;14.50;;;16.70;99.90;;;;;;5068109;28;20044;-69
2023/10/02 01:31:31;;;;;;;29.17;15.50;;;16.60;99.90;;;;;;5066415;28;20040;-70
2023/10/02 01:33:59;;;;;;;25.02;13.82;;;16.60;99.90;;;;;;5078194;28;20040;-72
2023/10/02 01:36:28;;;;;;;25.40;13.35;;;16.50;99.90;;;;;;5077262;28;20514;-71
2023/10/02 01:38:59;;;;;;;26.20;14.85;;;16.40;99.90;;;;;;5075195;28;20040;-71
2023/10/02 01:41:26;;;;;;;;;;;16.40;99.90;;;;;;5080593;28;20040;-71
2023/10/02 01:43:55;;;;;;;32.78;15.82;;;16.40;99.90;;;;;;5080005;28;19979;-72
2023/10/02 01:46:22;;;;;;;30.80;15.70;;;16.40;99.90;;;;;;5067859;28;20086;-71
2023/10/02 01:48:48;;;;;;;35.22;15.35;;;16.50;99.90;;;;;;5083245;28;20039;-72
2023/10/02 01:51:20;;;;;;;29.88;14.88;;;16.50;99.90;;;;;;5050084;28;20436;-71
2023/10/02 01:53:56;;;;;;;29.75;15.23;;;16.50;99.90;;;;;;5061200;28;20384;-72
2023/10/02 01:56:27;;;;;;;29.33;16.33;;;16.50;99.90;;;;;;5066612;28;20036;-72
2023/10/02 01:58:54;;;;;;;29.67;15.32;;;16.50;99.90;;;;;;5072345;28;20036;-72
2023/10/02 02:01:21;;;;;;;31.40;16.52;;;16.50;99.90;;;;;;5073955;28;20066;-72
2023/10/02 02:03:49;;;;;;;34.25;17.08;;;16.50;99.90;;;;;;5063439;28;20051;-69
2023/10/02 02:06:22;;;;;;;30.13;15.80;;;16.50;99.90;;;;;;5071424;28;20107;-71
2023/10/02 02:08:52;;;;;;;24.75;14.50;;;16.50;99.90;;;;;;5074055;28;20036;-72
2023/10/02 02:11:23;;;;;;;31.63;15.10;;;16.50;99.90;;;;;;5057103;28;20064;-72
2023/10/02 02:13:48;;;;;;;33.10;16.45;;;16.40;99.90;;;;;;5067995;28;20041;-72
2023/10/02 02:16:25;;;;;;;32.05;15.30;;;16.40;99.90;;;;;;5074156;28;20044;-72
2023/10/02 02:18:55;;;;;;;28.25;15.20;;;16.40;99.90;;;;;;5070810;28;20040;-71
2023/10/02 02:21:24;;;;;;;25.98;14.48;;;16.50;99.90;;;;;;5070684;28;20098;-71
2023/10/02 02:24:08;;;;;;;31.55;16.00;;;16.40;99.90;;;;;;5073620;28;20044;-72
2023/10/02 02:26:41;;;;;;;28.05;14.63;;;16.40;99.90;;;;;;5064310;28;20041;-72
2023/10/02 02:29:23;;;;;;;28.80;16.00;;;16.40;99.90;;;;;;5066918;28;20044;-72
2023/10/02 02:31:56;;;;;;;32.80;16.40;;;16.40;99.90;;;;;;5073984;28;20040;-72
2023/10/02 02:34:23;;;;;;;27.98;15.48;;;16.40;99.90;;;;;;5070696;28;20050;-72
2023/10/02 02:36:50;;;;;;;33.05;15.80;;;16.40;99.90;;;;;;5066015;28;20530;-72
2023/10/02 02:39:17;;;;;;;30.63;16.00;;;16.40;99.90;;;;;;5073386;28;20041;-71
2023/10/02 02:42:10;;;;;;;29.92;15.50;;;16.40;99.90;;;;;;5075061;28;20043;-72
2023/10/02 02:44:40;;;;;;;31.20;15.50;;;16.40;99.90;;;;;;5064256;28;20216;-72
2023/10/02 02:47:08;;;;;;;25.20;14.18;;;16.40;99.90;;;;;;5072706;28;20036;-69
2023/10/02 02:49:48;;;;;;;34.03;15.95;;;16.40;99.90;;;;;;5076744;28;20036;-72
2023/10/02 02:52:27;;;;;;;25.73;14.43;;;16.40;99.90;;;;;;5071160;28;20036;-69
2023/10/02 02:55:04;;;;;;;28.13;14.35;;;16.30;99.90;;;;;;5069284;28;20044;-70
2023/10/02 02:57:31;;;;;;;29.50;15.30;;;16.30;99.90;;;;;;5073372;28;20048;-69
2023/10/02 03:02:46;;;;;;;32.78;16.00;;;16.30;99.90;;;;;;5059208;28;20053;-70
2023/10/02 03:05:13;;;;;;;25.35;14.13;;;16.20;99.90;;;;;;5073076;28;20041;-70
2023/10/02 03:07:40;;;;;;;28.50;14.40;;;16.10;99.90;;;;;;5073141;28;20047;-70
2023/10/02 03:10:12;;;;;;;27.13;13.55;;;16.10;99.90;;;;;;5061028;28;20458;-69
2023/10/02 03:12:44;;;;;;;30.33;15.23;;;16.10;99.90;;;;;;5071768;28;20055;-71
2023/10/02 03:15:45;;;;;;;27.95;14.52;;;16.10;99.90;;;;;;5073427;28;20098;-69
2023/10/02 03:18:30;;;;;;;30.23;15.33;;;16.00;99.90;;;;;;5062580;28;20045;-70
2023/10/02 03:21:14;;;;;;;30.33;15.38;;;16.00;99.90;;;;;;5072824;28;20522;-69
2023/10/02 03:23:43;;;;;;;30.52;15.50;;;15.90;99.90;;;;;;5072145;28;20045;-69
2023/10/02 03:29:04;;;;;;;33.33;16.45;;;15.80;99.90;;;;;;5067484;28;20137;-69
2023/10/02 03:31:43;;;;;;;27.75;15.10;;;15.80;99.90;;;;;;5068689;28;20185;-69
2023/10/02 03:34:29;;;;;;;31.10;16.02;;;15.80;99.90;;;;;;5056549;28;20106;-70
2023/10/02 03:37:21;;;;;;;29.17;15.35;;;15.70;99.90;;;;;;5070569;28;20048;-69
2023/10/02 03:40:00;;;;;;;29.67;15.82;;;15.60;99.90;;;;;;5052556;28;20045;-69
2023/10/02 03:42:30;;;;;;;30.20;15.55;;;15.60;99.90;;;;;;5054366;28;20093;-69
2023/10/02 03:44:57;;;;;;;30.07;15.50;;;15.50;99.90;;;;;;5071340;28;20102;-69
2023/10/02 03:47:33;;;;;;;28.48;14.63;;;15.50;99.90;;;;;;5071010;28;20700;-69
2023/10/02 03:50:03;;;;;;;30.15;15.25;;;15.40;99.90;;;;;;5062217;28;20045;-69
2023/10/02 03:52:30;;;;;;;32.55;15.80;;;15.40;99.90;;;;;;5055851;28;20044;-69
2023/10/02 03:54:56;;;;;;;32.00;15.98;;;15.40;99.90;;;;;;5069882;28;20044;-70
2023/10/02 03:57:47;;;;;;;28.60;15.23;;;15.40;99.90;;;;;;5065768;28;20063;-69
2023/10/02 04:00:26;;;;;;;30.13;15.30;;;15.40;99.90;;;;;;5067698;28;20036;-69
2023/10/02 04:02:54;;;;;;;29.95;14.98;;;15.30;99.90;;;;;;5070810;28;20055;-70
2023/10/02 04:05:32;;;;;;;34.13;16.30;;;15.30;99.90;;;;;;5072272;28;20259;-70
2023/10/02 04:10:55;;;;;;;30.42;15.52;;;15.30;99.90;;;;;;5058186;28;20634;-69
2023/10/02 04:13:31;;;;;;;29.73;14.60;;;15.20;99.90;;;;;;5066116;28;20052;-69
2023/10/02 04:16:40;;;;;;;34.70;15.70;;;15.20;99.90;;;;;;5071522;28;20036;-69
2023/10/02 04:18:46;;;;;;;29.08;14.50;;;15.20;99.90;;;;;;5060563;28;20045;-69
2023/10/02 04:21:12;;;;;;;33.53;16.42;;;15.20;99.90;;;;;;5068445;28;20036;-69
2023/10/02 04:23:42;;;;;;;31.27;15.60;;;15.20;99.90;;;;;;5062329;28;20068;-69
2023/10/02 04:26:19;;;;;;;31.38;15.48;;;15.20;99.90;;;;;;5065039;28;20040;-70
2023/10/02 04:28:55;;;;;;;31.77;15.32;;;15.20;99.90;;;;;;5070587;28;20090;-69
2023/10/02 04:31:30;;;;;;;33.13;15.93;;;15.30;99.90;;;;;;5070559;28;20053;-70
2023/10/02 04:37:19;;;;;;;35.20;16.67;;;15.30;99.90;;;;;;5028152;28;20052;-70
2023/10/02 04:39:52;;;;;;;36.45;16.25;;;15.30;99.90;;;;;;5039461;28;20041;-72
2023/10/02 04:42:57;;;;;;;32.65;15.98;;;15.30;99.90;;;;;;5050805;28;20060;-69
2023/10/02 04:45:21;;;;;;;33.75;16.38;;;15.40;99.90;;;;;;5061860;28;20044;-70
2023/10/02 04:47:54;;;;;;;37.40;17.23;;;15.40;99.90;;;;;;5070650;28;20066;-70
2023/10/02 04:52:58;;;;;;;34.92;16.00;;;15.40;99.90;;;;;;5068751;28;20091;-69
2023/10/02 04:55:27;;;;;;;33.60;16.80;;;15.40;99.90;;;;;;5068927;28;20044;-69
2023/10/02 04:57:55;;;;;;;35.92;17.00;;;15.40;99.90;;;;;;5058456;28;20037;-69
2023/10/02 05:00:32;;;;;;;31.35;15.85;;;15.30;99.90;;;;;;5048513;28;20053;-69
2023/10/02 05:03:26;;;;;;;33.80;15.65;;;15.30;99.90;;;;;;5065791;28;20070;-69
2023/10/02 05:05:58;;;;;;;35.95;16.75;;;15.30;99.90;;;;;;5050242;28;20506;-70
2023/10/02 05:08:40;;;;;;;30.95;15.52;;;15.30;99.90;;;;;;5054480;28;20127;-70
2023/10/02 05:11:08;;;;;;;32.70;16.35;;;15.20;99.90;;;;;;5067057;28;20079;-70
2023/10/02 05:16:33;;;;;;;31.60;15.43;;;15.10;99.90;;;;;;5062238;28;20043;-69
2023/10/02 05:19:01;;;;;;;33.83;15.45;;;15.10;99.90;;;;;;5069371;28;20099;-70
2023/10/02 05:21:39;;;;;;;34.70;16.05;;;15.10;99.90;;;;;;5064670;28;20090;-70
2023/10/02 05:24:11;;;;;;;31.83;14.90;;;15.00;99.90;;;;;;5064664;28;20036;-70
2023/10/02 05:26:39;;;;;;;34.70;16.83;;;15.00;99.90;;;;;;5062254;28;20044;-70
2023/10/02 05:29:07;;;;;;;35.40;16.13;;;15.10;99.90;;;;;;5060589;28;20032;-74
2023/10/02 05:31:36;;;;;;;36.15;16.10;;;15.00;99.90;;;;;;5060576;28;21094;-69
2023/10/02 05:34:23;;;;;;;35.00;16.83;;;15.10;99.90;;;;;;5068585;28;20068;-71
2023/10/02 05:39:40;;;;;;;31.42;15.73;;;15.00;99.90;;;;;;5056557;28;20028;-70
2023/10/02 05:42:16;;;;;;;38.15;16.05;;;15.00;99.90;;;;;;5068192;28;20116;-70
2023/10/02 05:44:45;;;;;;;35.17;16.00;;;15.00;99.90;;;;;;5054145;28;20048;-70
2023/10/02 05:47:15;;;;;;;33.90;16.60;;;15.00;99.90;;;;;;5055996;28;20098;-71
2023/10/02 05:49:47;;;;;;;36.57;16.70;;;15.00;99.90;;;;;;5068802;28;20041;-70
2023/10/02 05:52:18;;;;;;;32.72;15.98;;;15.00;99.90;;;;;;5070620;28;20055;-70
2023/10/02 05:54:47;;;;;;;34.10;16.10;;;15.10;99.90;;;;;;5063719;28;20123;-69
2023/10/02 05:57:16;;;;;;;33.55;16.52;;;15.10;99.90;;;;;;5061762;28;20062;-71
2023/10/02 05:59:44;;;;;;;37.08;16.60;;;15.10;99.90;;;;;;5070587;28;20040;-70
2023/10/02 06:02:22;;;;;;;36.40;16.60;;;15.20;99.90;;;;;;5070745;28;20433;-70
2023/10/02 06:05:07;;;;;;;37.53;16.55;;;15.20;99.90;;;;;;5047139;28;20052;-69
2023/10/02 06:07:46;;;;;;;32.92;16.25;;;15.20;99.90;;;;;;5062287;28;20131;-69
2023/10/02 06:10:25;;;;;;;36.67;16.60;;;15.20;99.90;;;;;;5059593;28;20522;-69
2023/10/02 06:13:02;;;;;;;32.47;16.35;;;15.30;99.90;;;;;;5068309;28;20433;-72
2023/10/02 06:15:46;;;;;;;39.05;16.40;;;15.30;99.90;;;;;;5069237;28;20364;-70
2023/10/02 06:18:24;;;;;;;31.05;16.20;;;15.30;99.90;;;;;;5067446;28;20124;-71
2023/10/02 06:21:00;;;;;;;36.92;16.42;;;15.30;99.90;;;;;;5055088;28;20045;-72
2023/10/02 06:23:29;;;;;;;33.20;15.98;;;15.40;99.90;;;;;;5056399;28;20048;-70
2023/10/02 06:25:58;;;;;;;31.98;15.65;;;15.50;99.90;;;;;;5062972;28;20051;-71
2023/10/02 06:28:27;;;;;;;35.95;16.58;;;15.50;99.90;;;;;;5070272;28;20041;-69
2023/10/02 06:30:54;;;;;;;38.15;16.55;;;15.50;99.90;;;;;;5070178;28;20071;-69
2023/10/02 06:33:24;;;;;;;33.20;15.52;;;15.70;99.90;;;;;;5055595;28;20068;-70
2023/10/02 06:35:57;;;;;;;30.42;15.65;;;15.70;99.90;;;;;;5060073;28;20040;-69
2023/10/02 06:38:30;;;;;;;34.05;15.57;;;15.80;99.90;;;;;;5053001;28;20049;-70
2023/10/02 06:40:56;;;;;;;38.92;16.48;;;15.80;99.90;;;;;;5063367;28;20471;-71
2023/10/02 06:43:32;;;;;;;32.42;16.17;;;15.90;99.90;;;;;;5057169;28;20110;-70
2023/10/02 06:46:13;;;;;;;35.50;15.70;;;16.00;99.90;;;;;;5070137;28;20644;-68
2023/10/02 06:48:43;;;;;;;30.48;16.00;;;16.10;99.90;;;;;;5070631;28;20040;-71
2023/10/02 06:51:13;;;;;;;36.22;15.77;;;16.20;99.90;;;;;;5054883;28;20037;-69
2023/10/02 06:53:42;;;;;;;33.38;15.27;;;16.30;99.90;;;;;;5057109;28;20072;-68
2023/10/02 06:56:12;;;;;;;29.73;15.85;;;16.30;99.90;;;;;;5053414;28;20041;-71
2023/10/02 06:58:54;;;;;;;31.70;15.38;;;16.30;99.90;;;;;;5061171;28;20036;-68
2023/10/02 07:01:20;;;;;;;35.53;16.10;;;16.40;99.90;;;;;;5069822;28;20037;-68
2023/10/02 07:03:52;;;;;;;32.20;14.93;;;16.50;99.90;;;;;;5063283;28;20041;-68
2023/10/02 07:06:24;;;;;;;31.25;15.00;;;16.60;99.90;;;;;;5067598;28;20036;-68
2023/10/02 07:09:09;;;;;;;36.08;16.73;;;16.60;99.90;;;;;;5071203;28;20071;-69
2023/10/02 07:11:42;;;;;;;31.25;15.27;;;16.70;99.90;;;;;;5063237;28;20051;-68
2023/10/02 07:14:09;;;;;;;32.08;14.73;;;16.80;99.90;;;;;;5071998;28;20040;-68
2023/10/02 07:16:36;;;;;;;28.15;14.32;;;16.80;99.90;;;;;;5072288;28;20032;-68
2023/10/02 07:19:04;;;;;;;30.27;14.73;;;16.90;99.90;;;;;;5063351;28;20044;-69
2023/10/02 07:21:30;;;;;;;31.92;14.43;;;16.80;99.90;;;;;;5063044;28;20050;-69
2023/10/02 07:24:03;;;;;;;32.15;16.02;;;16.80;99.90;;;;;;5071641;28;20041;-68
2023/10/02 07:26:51;;;;;;;32.78;15.15;;;16.90;99.90;;;;;;5065299;28;20028;-68
2023/10/02 07:29:17;;;;;;;31.15;14.38;;;16.90;99.90;;;;;;5068366;28;20068;-67
2023/10/02 07:31:44;;;;;;;30.20;14.68;;;16.90;99.90;;;;;;5071783;28;20151;-68
2023/10/02 07:34:11;;;;;;;32.78;15.43;;;16.90;99.90;;;;;;5069386;28;20072;-70
2023/10/02 07:36:44;;;;;;;29.90;15.32;;;17.00;99.90;;;;;;5063601;28;20427;-70
2023/10/02 07:39:35;;;;;;;30.70;15.90;;;17.00;99.90;;;;;;5068646;28;20040;-69
2023/10/02 07:42:04;;;;;;;30.58;14.63;;;17.00;99.90;;;;;;5071567;28;20399;-69
2023/10/02 07:44:38;;;;;;;31.48;15.68;;;17.10;99.90;;;;;;5062494;28;20044;-69
2023/10/02 07:47:10;;;;;;;30.45;15.60;;;17.20;99.90;;;;;;5053418;28;20130;-68
2023/10/02 07:49:40;;;;;;;28.98;13.95;;;17.30;99.90;;;;;;5064764;28;20040;-68
2023/10/02 07:52:09;;;;;;;33.33;15.05;;;17.40;99.90;;;;;;5072425;28;20048;-68
2023/10/02 07:54:44;;;;;;;29.30;14.82;;;17.50;99.90;;;;;;5060475;28;20045;-69
2023/10/02 07:57:13;;;;;;;30.73;15.23;;;17.40;99.90;;;;;;5064240;28;20047;-70
2023/10/02 07:59:40;;;;;;;29.27;15.30;;;17.50;99.90;;;;;;5061512;28;20432;-70
2023/10/02 08:02:21;;;;;;;28.63;14.75;;;17.40;99.90;;;;;;5057257;28;20120;-68
2023/10/02 08:04:48;;;;;;;27.88;15.20;;;17.40;99.90;;;;;;5060374;28;20045;-69
2023/10/02 08:07:14;;;;;;;28.58;14.88;;;17.50;99.90;;;;;;5066259;28;20044;-70
2023/10/02 08:09:47;;;;;;;31.75;14.95;;;17.50;99.90;;;;;;5066834;28;20486;-69
2023/10/02 08:12:33;;;;;;;30.38;15.45;;;17.60;99.90;;;;;;5052129;28;20048;-70
2023/10/02 08:15:05;;;;;;;30.10;15.75;;;17.60;99.90;;;;;;5064504;28;20036;-70
2023/10/02 08:20:15;;;;;;;32.45;15.93;;;17.60;99.90;;;;;;5066216;28;20051;-68
2023/10/02 08:22:44;;;;;;;31.77;16.17;;;17.70;99.90;;;;;;5063160;28;20091;-70
2023/10/02 08:25:14;;;;;;;29.83;15.55;;;17.70;99.90;;;;;;5057101;28;20040;-68
2023/10/02 08:27:57;;;;;;;34.67;16.83;;;17.70;99.90;;;;;;5059946;28;20679;-67
2023/10/02 08:30:27;;;;;;;31.80;15.68;;;17.70;99.90;;;;;;5068035;28;20055;-71
2023/10/02 08:33:09;;;;;;;33.08;15.35;;;17.80;99.90;;;;;;5063033;28;20112;-69
2023/10/02 08:35:37;;;;;;;33.65;15.95;;;17.90;99.90;;;;;;5054423;28;20799;-70
2023/10/02 08:38:07;;;;;;;34.90;16.63;;;18.00;99.90;;;;;;5063918;28;20041;-69
2023/10/02 08:40:33;;;;;;;37.95;17.23;;;18.20;99.90;;;;;;5059189;28;20455;-71
2023/10/02 08:42:58;;;;;;;34.20;16.92;;;18.30;99.90;;;;;;5054196;28;20043;-70
2023/10/02 08:45:24;;;;;;;33.92;16.65;;;18.40;99.90;;;;;;5044658;28;20048;-68
2023/10/02 08:47:50;;;;;;;30.25;15.23;;;18.60;99.90;;;;;;5053288;28;20502;-70
2023/10/02 08:50:16;;;;;;;31.30;16.30;;;18.60;99.90;;;;;;5052116;28;20076;-71
2023/10/02 08:52:52;;;;;;;31.50;16.00;;;18.70;99.90;;;;;;5053469;28;20037;-70
2023/10/02 08:55:36;;;;;;;28.13;15.52;;;18.80;99.90;;;;;;5066234;28;20051;-70
2023/10/02 08:58:18;;;;;;;33.63;16.60;;;18.90;99.90;;;;;;5051634;28;20549;-70
2023/10/02 09:03:42;;;;;;;34.67;16.60;;;19.00;99.90;;;;;;5051056;28;20056;-68
2023/10/02 09:06:31;;;;;;;34.08;17.08;;;19.10;99.90;;;;;;5051935;28;20056;-71
2023/10/02 09:11:39;;;;;;;37.47;17.20;;;19.20;99.90;;;;;;5064231;28;20049;-68
2023/10/02 09:14:15;;;;;;;31.42;16.83;;;19.30;99.90;;;;;;5071363;28;20033;-68
2023/10/02 09:16:40;;;;;;;37.60;17.92;;;19.40;99.90;;;;;;5059723;28;20456;-68
2023/10/02 09:19:28;;;;;;;38.85;17.25;;;19.60;99.90;;;;;;5058293;28;20033;-68
2023/10/02 09:22:07;;;;;;;37.70;16.55;;;19.60;99.90;;;;;;5049259;28;20041;-71
2023/10/02 09:24:55;;;;;;;37.13;18.00;;;19.60;99.90;;;;;;5052297;28;20048;-70
2023/10/02 09:27:30;;;;;;;34.45;17.45;;;19.60;99.90;;;;;;5056968;28;20056;-69
2023/10/02 09:30:28;;;;;;;32.45;16.90;;;19.70;99.90;;;;;;5077904;28;20104;-70
2023/10/02 09:32:53;;;;;;;37.03;17.80;;;19.70;99.90;;;;;;5064613;28;20036;-68
2023/10/02 09:35:29;;;;;;;40.38;18.40;;;19.60;99.90;;;;;;5069384;28;20498;-68
2023/10/02 09:37:59;;;;;;;36.08;17.83;;;19.70;99.90;;;;;;5070057;28;20040;-68
2023/10/02 09:40:28;;;;;;;40.70;18.42;;;19.60;99.90;;;;;;5054856;28;20095;-68
2023/10/02 09:43:01;;;;;;;39.60;19.25;;;19.70;99.90;;;;;;5057765;28;20068;-68
2023/10/02 09:45:31;;;;;;;35.22;18.92;;;19.80;99.90;;;;;;5069296;28;20037;-70
2023/10/02 09:47:59;;;;;;;36.00;18.77;;;19.90;99.90;;;;;;5067065;28;20048;-69
2023/10/02 09:50:29;;;;;;;37.88;19.98;;;20.00;99.90;;;;;;5068987;28;20659;-69
2023/10/02 09:53:02;;;;;;;37.70;19.80;;;20.10;99.90;;;;;;5072332;28;20511;-68
2023/10/02 09:55:57;;;;;;;44.22;20.83;;;20.20;99.90;;;;;;5068521;28;20044;-70
2023/10/02 09:58:32;;;;;;;40.15;20.30;;;20.40;99.90;;;;;;5070248;28;20048;-70
2023/10/02 10:01:36;;;;;;;41.47;19.77;;;20.50;99.90;;;;;;5073513;28;20513;-69
2023/10/02 10:04:31;;;;;;;36.90;19.15;;;20.50;99.90;;;;;;5015194;28;20531;-70
2023/10/02 10:07:35;;;;;;;38.45;19.83;;;20.50;99.90;;;;;;5065159;28;20079;-69
2023/10/02 10:10:47;;;;;;;37.25;18.95;;;20.50;99.90;;;;;;5069239;28;20460;-68
2023/10/02 10:13:32;;;;;;;39.28;19.45;;;20.60;99.90;;;;;;5053537;28;20562;-69
2023/10/02 10:16:18;;;;;;;35.58;18.90;;;20.60;99.90;;;;;;5075522;28;20491;-69
2023/10/02 10:21:55;;;;;;;36.67;18.67;;;20.60;99.90;;;;;;5074468;28;20041;-67
2023/10/02 10:27:39;;;;;;;37.13;19.13;;;20.80;99.90;;;;;;5051925;28;20045;-67
2023/10/02 10:30:28;;;;;;;42.17;20.13;;;21.00;99.90;;;;;;5054962;28;20036;-72
2023/10/02 10:35:38;;;;;;;38.10;18.20;;;21.00;99.90;;;;;;5063991;28;20075;-69
2023/10/02 10:38:39;;;;;;;42.65;19.80;;;20.90;99.90;;;;;;5072466;28;20041;-70
2023/10/02 10:41:09;;;;;;;36.80;19.30;;;21.00;99.90;;;;;;5059037;28;20071;-68
2023/10/02 10:46:20;;;;;;;37.15;19.02;;;21.20;99.90;;;;;;5069484;28;20052;-67
2023/10/02 10:49:07;;;;;;;36.33;18.25;;;21.30;99.90;;;;;;5068375;28;20119;-65
2023/10/02 10:51:37;;;;;;;37.25;17.83;;;21.20;99.90;;;;;;5065708;28;20079;-67
2023/10/02 10:54:19;;;;;;;36.03;18.05;;;21.20;99.90;;;;;;5063815;28;20052;-67
2023/10/02 10:56:56;;;;;;;32.08;16.98;;;21.30;99.90;;;;;;5066664;28;20044;-66
2023/10/02 10:59:32;;;;;;;33.70;17.27;;;21.20;99.90;;;;;;5073104;28;20072;-67
2023/10/02 11:02:13;;;;;;;34.55;18.15;;;21.40;99.90;;;;;;5069083;28;20082;-69
2023/10/02 11:04:45;;;;;;;35.00;17.92;;;21.30;99.90;;;;;;5056366;28;20117;-67
2023/10/02 11:07:21;;;;;;;32.10;16.38;;;21.40;99.90;;;;;;5059487;28;20056;-69
2023/10/02 11:10:15;;;;;;;32.17;16.20;;;21.60;99.90;;;;;;5066338;28;20408;-67
2023/10/02 11:13:01;;;;;;;33.90;17.52;;;21.70;99.90;;;;;;5056927;28;20056;-69
2023/10/02 11:15:57;;;;;;;31.70;17.40;;;21.80;99.90;;;;;;5068938;28;20407;-70
2023/10/02 11:18:23;;;;;;;37.28;17.05;;;22.00;99.90;;;;;;5073048;28;20052;-69
2023/10/02 11:20:54;;;;;;;32.75;16.30;;;22.20;99.90;;;;;;5069053;28;20033;-70
2023/10/02 11:23:43;;;;;;;30.98;15.75;;;22.20;99.90;;;;;;5055686;28;20095;-65
2023/10/02 11:26:21;;;;;;;29.83;14.85;;;22.20;99.90;;;;;;5068043;28;20032;-69
2023/10/02 11:28:50;;;;;;;32.08;16.58;;;22.20;99.90;;;;;;5066698;28;20040;-70
2023/10/02 11:31:32;;;;;;;31.20;15.00;;;22.20;99.90;;;;;;5067940;28;20043;-65
2023/10/02 11:34:08;;;;;;;29.40;15.82;;;22.20;99.90;;;;;;5063945;28;20036;-70
2023/10/02 11:36:35;;;;;;;29.88;15.43;;;22.30;99.90;;;;;;5059725;28;20521;-70
2023/10/02 11:39:08;;;;;;;30.42;16.15;;;22.20;99.90;;;;;;5063638;28;20480;-70
2023/10/02 11:41:37;;;;;;;28.05;15.40;;;22.30;99.90;;;;;;5068115;28;20028;-70
2023/10/02 11:44:04;;;;;;;31.67;16.27;;;22.30;99.90;;;;;;5072708;28;20048;-70
2023/10/02 11:46:30;;;;;;;28.48;15.18;;;22.40;99.90;;;;;;5062815;28;20044;-67
2023/10/02 11:48:56;;;;;;;30.52;15.27;;;22.50;99.90;;;;;;5062422;28;20045;-70
2023/10/02 11:51:28;;;;;;;28.77;13.75;;;22.60;99.90;;;;;;5072306;28;20048;-69
2023/10/02 11:54:05;;;;;;;29.60;14.70;;;22.60;99.90;;;;;;5062968;28;20127;-67
2023/10/02 11:56:31;;;;;;;27.15;14.43;;;22.70;99.90;;;;;;5066555;28;20107;-68
2023/10/02 11:58:57;;;;;;;30.80;14.23;;;22.80;99.90;;;;;;5071909;28;20120;-68
2023/10/02 12:01:24;;;;;;;24.15;13.23;;;22.80;99.90;;;;;;5072715;28;20045;-67
2023/10/02 12:03:50;;;;;;;25.00;13.68;;;22.80;99.90;;;;;;5064826;28;20783;-67
2023/10/02 12:06:16;;;;;;;29.25;14.13;;;22.80;99.90;;;;;;5068730;28;20124;-70
2023/10/02 12:08:48;;;;;;;21.92;12.60;;;22.90;99.90;;;;;;5058097;28;20051;-67
2023/10/02 12:11:14;;;;;;;24.02;12.27;;;22.90;99.90;;;;;;5059241;28;20052;-68
2023/10/02 12:13:43;;;;;;;20.70;11.38;;;22.90;99.90;;;;;;5069939;28;20044;-68
2023/10/02 12:16:11;;;;;;;26.40;12.90;;;22.90;99.90;;;;;;5066680;28;20033;-70
2023/10/02 12:18:37;;;;;;;25.45;13.25;;;23.00;99.90;;;;;;5059046;28;20033;-67
2023/10/02 12:21:08;;;;;;;27.05;14.15;;;23.10;99.90;;;;;;5070398;28;20067;-69
2023/10/02 12:23:39;;;;;;;25.98;13.50;;;23.00;99.90;;;;;;5065611;28;20041;-68
2023/10/02 12:26:05;;;;;;;29.45;13.75;;;23.20;99.90;;;;;;5064367;28;20450;-68
2023/10/02 12:28:30;;;;;;;25.55;13.70;;;23.20;99.90;;;;;;5051606;28;20509;-67
2023/10/02 12:30:56;;;;;;;23.42;12.13;;;23.20;99.90;;;;;;5069312;28;20040;-69
2023/10/02 12:33:21;;;;;;;24.92;13.38;;;23.20;99.90;;;;;;5069932;28;20045;-69
2023/10/02 12:35:47;;;;;;;24.98;13.13;;;23.30;99.90;;;;;;5070888;28;20068;-67
2023/10/02 12:38:13;;;;;;;27.02;13.30;;;23.40;99.90;;;;;;5067003;28;20032;-67
2023/10/02 12:40:39;;;;;;;26.48;13.13;;;23.30;99.90;;;;;;5070643;28;20431;-68
2023/10/02 12:43:05;;;;;;;24.00;13.45;;;23.30;99.90;;;;;;5064473;28;20029;-72
2023/10/02 12:45:35;;;;;;;27.77;13.60;;;23.20;99.90;;;;;;5059366;28;20121;-67
2023/10/02 12:48:07;;;;;;;23.95;13.23;;;23.30;99.90;;;;;;5070017;28;20044;-68
2023/10/02 12:50:39;;;;;;;25.88;13.00;;;23.30;99.90;;;;;;5066114;28;20040;-67
2023/10/02 12:53:05;;;;;;;24.85;13.23;;;23.30;99.90;;;;;;5064723;28;20049;-67
2023/10/02 12:55:39;;;;;;;22.38;12.40;;;23.20;99.90;;;;;;5061386;28;20531;-68
2023/10/02 12:58:05;;;;;;;21.63;11.80;;;23.20;99.90;;;;;;5071696;28;20037;-67
2023/10/02 13:00:31;;;;;;;22.55;11.93;;;23.20;99.90;;;;;;5054323;28;20047;-68
2023/10/02 13:02:58;;;;;;;22.42;12.25;;;23.10;99.90;;;;;;5069499;28;20032;-67
2023/10/02 13:05:25;;;;;;;22.50;11.93;;;23.00;99.90;;;;;;5070681;28;20902;-70
2023/10/02 13:07:55;;;;;;;24.98;12.60;;;22.90;99.90;;;;;;5071275;28;20052;-67
2023/10/02 13:10:23;;;;;;;21.47;11.90;;;23.00;99.90;;;;;;5062002;28;20446;-67
2023/10/02 13:12:49;;;;;;;22.85;11.20;;;22.90;99.90;;;;;;5065570;28;20036;-68
2023/10/02 13:15:15;;;;;;;24.98;11.52;;;23.00;99.90;;;;;;5069560;28;20058;-68
2023/10/02 13:17:40;;;;;;;22.42;11.82;;;23.00;99.90;;;;;;5056851;28;20112;-68
2023/10/02 13:20:08;;;;;;;20.52;10.75;;;23.00;99.90;;;;;;5066979;28;20120;-67
2023/10/02 13:22:35;;;;;;;21.17;10.82;;;23.00;99.90;;;;;;5070103;28;20053;-68
2023/10/02 13:25:05;;;;;;;22.83;10.95;;;22.90;99.90;;;;;;5064639;28;20373;-67
2023/10/02 13:27:36;;;;;;;20.33;11.02;;;23.00;99.90;;;;;;5062142;28;20037;-69
2023/10/02 13:30:05;;;;;;;21.30;10.95;;;23.10;99.90;;;;;;5075180;28;20041;-67
2023/10/02 13:32:31;;;;;;;24.52;11.90;;;23.20;99.90;;;;;;5075256;28;20040;-69
2023/10/02 13:34:56;;;;;;;22.48;12.73;;;23.20;99.90;;;;;;5061131;28;20052;-67
2023/10/02 13:37:22;;;;;;;25.33;13.05;;;23.20;99.90;;;;;;5073679;28;20066;-67
2023/10/02 13:39:47;;;;;;;22.48;12.60;;;23.30;99.90;;;;;;5075005;28;20104;-67